Saturday, August 18, 2018, 3:18 AM EDT
Back to Local

KASH, Nashua, Boire Field Airport

Location: Nashua, NH, United States Lat: 42.782
Local Time: 3:18 AM EDT ( 7:18 GMT) Lon: -71.515
Time Zone: US/Eastern Elev: 200 ft

Show me the last for .
Show Decoded

2018-08-18 02:56 METAR KASH 180656Z AUTO VRB04KT 10SM -RA SCT019 BKN085 22/22 A2984 RMK AO2
                 SLP112 T02220222 PNO $ =
2018-08-18 01:56 METAR KASH 180556Z AUTO VRB03KT 10SM -RA CLR 23/23 A2984 RMK AO2 SLP110 6////
                 T02280228 10233 20222 58027 PNO $ =
2018-08-18 00:56 METAR KASH 180456Z AUTO 14004KT 4SM RA BR BKN120 23/23 A2988 RMK AO2 LTG DSNT S
                 SLP124 T02330233 PNO $ =
2018-08-17 23:56 METAR KASH 180356Z AUTO VRB03KT 4SM -RA BR SCT110 23/23 A2990 RMK AO2 LTG DSNT
                 SW RAB21 SLP134 T02280228 403060183 PNO $ =
2018-08-17 22:56 METAR KASH 180256Z AUTO 00000KT 6SM BR CLR 23/23 A2992 RMK AO2 RAE52 SLP138
                 6//// T02280228 58006 PNO $ =
2018-08-17 21:56 METAR KASH 180156Z AUTO 14003KT 8SM -RA FEW070 SCT100 23/23 A2992 RMK AO2 LTG
                 DSNT N TSB00E15RAB20 SLP139 T02280228 PNO $ =
2018-08-17 21:21 METAR KASH 180121Z AUTO 00000KT 10SM -RA FEW070 OVC095 23/23 A2995 RMK AO2 LTG
                 DSNT N AND NW TSB00E15RAB20 PNO $ =
2018-08-17 21:06 METAR KASH 180106Z AUTO 00000KT 9SM VCTS OVC095 23/23 A2995 RMK AO2 LTG DSNT W
                 AND NW TSB00 PNO $ =
2018-08-17 20:56 METAR KASH 180056Z 00000KT 10SM OVC100 23/23 A2995 RMK AO2 LTG DSNT W AND NW
                 RAB34E56 SLP149 T02280228 PNO $ =
2018-08-17 19:56 METAR KASH 172356Z 00000KT 8SM SCT039 BKN100 23/23 A2994 RMK AO2 LTG DSNT W AND
                 NW SLP145 6//// T02330228 10306 20222 56016 PNO $ =
2018-08-17 18:56 METAR KASH 172256Z 14004KT 8SM SCT010 BKN042 24/23 A2994 RMK AO2 SLP147
                 T02390228 PNO $ =
2018-08-17 17:56 METAR KASH 172156Z 12004KT 10SM FEW008 SCT120 25/23 A2996 RMK AO2 LTG DSNT S
                 SLP154 T02500233 PNO $ =
2018-08-17 16:56 METAR KASH 172056Z 11005KT 10SM SCT090 BKN120 24/24 A2998 RMK AO2 LTG DSNT E AND
                 SE TSE04B06E45RAE48 SLP161 6//// T02440239 58005 PNO $ =
2018-08-17 16:51 METAR KASH 172051Z 10005KT 8SM SCT090 BKN120 24/23 A2999 RMK AO2 LTG DSNT E AND
                 SE TSE04B06E45RAE48 PNO $ =
2018-08-17 16:17 METAR KASH 172017Z 17005G17KT 3SM -TSRA BR FEW014 BKN036 BKN110 22/22 A3000 RMK
                 AO2 LTG DSNT SE AND S TSE04B06 PNO $ =
2018-08-17 16:06 METAR KASH 172006Z COR 12013G17KT 1 1/4SM RA BR SCT014 SCT021 OVC036 23/22 A3000
                 RMK AO2 LTG DSNT SE-SW TSE04B06 PNO $ =
2018-08-17 16:02 METAR KASH 172002Z VRB06G14KT 1 3/4SM +TSRA BR FEW014 SCT021 OVC036 24/23 A3002
                 RMK AO2 LTG DSNT SE-W PNO $ =
2018-08-17 15:56 METAR KASH 171956Z VRB04KT 3SM +TSRA BKN036 27/23 A3001 RMK AO2 LTG DSNT ALQDS
                 TSB33RAB39 PRESRR SLP171 T02670228 PNO $ =
2018-08-17 15:39 METAR KASH 171939Z 10006KT 7SM VCTS -RA SCT039 BKN090 29/22 A2999 RMK AO2 LTG
                 DSNT S-NW TSB33RAB39 PNO $ =
2018-08-17 14:56 METAR KASH 171856Z 17005KT 7SM SCT037 29/22 A3000 RMK AO2 LTG DSNT W AND NW
                 SLP166 HAZY T02940217 PNO $ =
2018-08-17 13:56 METAR KASH 171756Z COR VRB03KT 10SM HZ CLR 29/21 A3003 RMK AO2 SLP176 6////
                 T02890211 10289 20200 58022 PNO $ =
2018-08-17 12:56 METAR KASH 171656Z VRB03KT 10SM CLR 27/19 A3006 RMK AO2 SLP185 T02670194 PNO $ =
2018-08-17 11:56 METAR KASH 171556Z VRB04KT 8SM CLR 26/19 A3008 RMK AO2 SLP193 T02610189 PNO $ =
2018-08-17 10:56 METAR KASH 171456Z 11004KT 10SM CLR 26/18 A3009 RMK AO2 SLP198 6//// T02560178
                 58008 PNO $ =
2018-08-17 09:56 METAR KASH 171356Z 00000KT 10SM CLR 23/17 A3011 RMK AO2 SLP203 T02330172 PNO $ =
2018-08-17 08:56 METAR KASH 171256Z VRB03KT 10SM CLR 22/17 A3011 RMK AO2 SLP205 T02170172 PNO $ =
2018-08-17 07:56 METAR KASH 171156Z 00000KT 10SM CLR 20/17 A3012 RMK AO2 SLP207 6//// 7////
                 T02000172 10206 20183 50002 PNO $ =
2018-08-17 06:56 METAR KASH 171056Z 34003KT 10SM CLR 19/18 A3012 RMK AO2 SLP207 T01890183 PNO $ =
2018-08-17 05:56 METAR KASH 170956Z AUTO 31004KT 10SM CLR 18/18 A3012 RMK AO2 SLP206 T01830178
                 PNO $ =
2018-08-17 04:56 METAR KASH 170856Z AUTO 31003KT 10SM SCT037 BKN048 19/19 A3011 RMK AO2 SLP204
                 6//// T01890189 53004 PNO $ =
2018-08-17 03:56 METAR KASH 170756Z AUTO 29003KT 10SM SCT043 19/19 A3010 RMK AO2 SLP200 T01940194
                 PNO $ =

Support USWX by starting your Amazon purchase here.